sensor_id;sensor_type;location;lat;lon;timestamp;P1;durP1;ratioP1;P2;durP2;ratioP2
31730;SDS011;18310;55.586;12.286;2022-12-16T00:01:01;10.32;;;4.50;;
31730;SDS011;18310;55.586;12.286;2022-12-16T00:04:08;12.13;;;4.57;;
31730;SDS011;18310;55.586;12.286;2022-12-16T00:07:11;10.98;;;4.40;;
31730;SDS011;18310;55.586;12.286;2022-12-16T00:10:14;10.15;;;4.53;;
31730;SDS011;18310;55.586;12.286;2022-12-16T00:13:17;8.85;;;4.35;;
31730;SDS011;18310;55.586;12.286;2022-12-16T00:19:25;9.57;;;3.92;;
31730;SDS011;18310;55.586;12.286;2022-12-16T00:22:28;12.73;;;4.80;;
31730;SDS011;18310;55.586;12.286;2022-12-16T00:25:31;15.15;;;4.85;;
31730;SDS011;18310;55.586;12.286;2022-12-16T00:28:34;13.00;;;5.20;;
31730;SDS011;18310;55.586;12.286;2022-12-16T00:31:38;11.55;;;5.13;;
31730;SDS011;18310;55.586;12.286;2022-12-16T00:34:43;11.35;;;4.88;;
31730;SDS011;18310;55.586;12.286;2022-12-16T00:37:46;12.55;;;5.22;;
31730;SDS011;18310;55.586;12.286;2022-12-16T00:40:49;13.68;;;5.35;;
31730;SDS011;18310;55.586;12.286;2022-12-16T00:43:52;11.90;;;5.40;;
31730;SDS011;18310;55.586;12.286;2022-12-16T00:46:55;13.57;;;5.28;;
31730;SDS011;18310;55.586;12.286;2022-12-16T00:50:00;12.73;;;5.78;;
31730;SDS011;18310;55.586;12.286;2022-12-16T00:53:03;11.68;;;5.35;;
31730;SDS011;18310;55.586;12.286;2022-12-16T00:56:09;11.82;;;5.53;;
31730;SDS011;18310;55.586;12.286;2022-12-16T00:59:15;14.10;;;5.90;;
31730;SDS011;18310;55.586;12.286;2022-12-16T01:02:18;10.93;;;5.40;;
31730;SDS011;18310;55.586;12.286;2022-12-16T01:05:22;13.60;;;5.78;;
31730;SDS011;18310;55.586;12.286;2022-12-16T01:08:27;14.02;;;6.30;;
31730;SDS011;18310;55.586;12.286;2022-12-16T01:11:30;15.13;;;5.90;;
31730;SDS011;18310;55.586;12.286;2022-12-16T01:14:33;10.20;;;5.27;;
31730;SDS011;18310;55.586;12.286;2022-12-16T01:17:37;12.38;;;5.22;;
31730;SDS011;18310;55.586;12.286;2022-12-16T01:20:41;12.43;;;5.93;;
31730;SDS011;18310;55.586;12.286;2022-12-16T01:23:45;11.98;;;5.38;;
31730;SDS011;18310;55.586;12.286;2022-12-16T01:26:49;13.57;;;5.32;;
31730;SDS011;18310;55.586;12.286;2022-12-16T01:29:52;10.15;;;4.50;;
31730;SDS011;18310;55.586;12.286;2022-12-16T01:32:55;9.95;;;4.60;;
31730;SDS011;18310;55.586;12.286;2022-12-16T01:36:01;10.00;;;4.05;;
31730;SDS011;18310;55.586;12.286;2022-12-16T01:39:07;10.63;;;3.90;;
31730;SDS011;18310;55.586;12.286;2022-12-16T01:42:11;8.73;;;3.83;;
31730;SDS011;18310;55.586;12.286;2022-12-16T01:45:27;12.63;;;4.70;;
31730;SDS011;18310;55.586;12.286;2022-12-16T01:48:35;11.65;;;4.72;;
31730;SDS011;18310;55.586;12.286;2022-12-16T01:51:49;12.20;;;4.80;;
31730;SDS011;18310;55.586;12.286;2022-12-16T01:54:57;11.30;;;4.55;;
31730;SDS011;18310;55.586;12.286;2022-12-16T01:58:06;7.90;;;3.92;;
31730;SDS011;18310;55.586;12.286;2022-12-16T02:01:15;9.20;;;3.95;;
31730;SDS011;18310;55.586;12.286;2022-12-16T02:04:18;7.82;;;3.92;;
31730;SDS011;18310;55.586;12.286;2022-12-16T02:07:22;8.07;;;4.00;;
31730;SDS011;18310;55.586;12.286;2022-12-16T02:10:27;8.63;;;3.70;;
31730;SDS011;18310;55.586;12.286;2022-12-16T02:13:52;9.70;;;4.28;;
31730;SDS011;18310;55.586;12.286;2022-12-16T02:17:17;10.00;;;4.07;;
31730;SDS011;18310;55.586;12.286;2022-12-16T02:20:38;9.80;;;4.05;;
31730;SDS011;18310;55.586;12.286;2022-12-16T02:24:40;9.40;;;3.97;;
31730;SDS011;18310;55.586;12.286;2022-12-16T02:28:26;8.18;;;3.83;;
31730;SDS011;18310;55.586;12.286;2022-12-16T02:31:57;12.75;;;4.35;;
31730;SDS011;18310;55.586;12.286;2022-12-16T02:35:14;12.48;;;4.35;;
31730;SDS011;18310;55.586;12.286;2022-12-16T02:38:38;8.45;;;4.25;;
31730;SDS011;18310;55.586;12.286;2022-12-16T02:41:58;9.05;;;4.15;;
31730;SDS011;18310;55.586;12.286;2022-12-16T02:45:14;9.60;;;4.72;;
31730;SDS011;18310;55.586;12.286;2022-12-16T02:48:21;8.43;;;4.05;;
31730;SDS011;18310;55.586;12.286;2022-12-16T02:51:24;8.00;;;3.80;;
31730;SDS011;18310;55.586;12.286;2022-12-16T02:54:28;8.35;;;4.45;;
31730;SDS011;18310;55.586;12.286;2022-12-16T02:57:39;10.15;;;4.18;;
31730;SDS011;18310;55.586;12.286;2022-12-16T03:01:10;10.35;;;4.30;;
31730;SDS011;18310;55.586;12.286;2022-12-16T03:04:26;6.85;;;3.55;;
31730;SDS011;18310;55.586;12.286;2022-12-16T03:07:39;8.77;;;4.15;;
31730;SDS011;18310;55.586;12.286;2022-12-16T03:10:46;7.57;;;3.63;;
31730;SDS011;18310;55.586;12.286;2022-12-16T03:13:55;6.22;;;3.38;;
31730;SDS011;18310;55.586;12.286;2022-12-16T03:17:00;8.07;;;3.80;;
31730;SDS011;18310;55.586;12.286;2022-12-16T03:20:08;11.35;;;4.43;;
31730;SDS011;18310;55.586;12.286;2022-12-16T03:23:20;7.97;;;4.18;;
31730;SDS011;18310;55.586;12.286;2022-12-16T03:26:30;14.23;;;4.82;;
31730;SDS011;18310;55.586;12.286;2022-12-16T03:29:43;8.73;;;4.38;;
31730;SDS011;18310;55.586;12.286;2022-12-16T03:32:57;9.32;;;3.72;;
31730;SDS011;18310;55.586;12.286;2022-12-16T03:36:08;9.18;;;4.10;;
31730;SDS011;18310;55.586;12.286;2022-12-16T03:39:16;6.70;;;3.83;;
31730;SDS011;18310;55.586;12.286;2022-12-16T03:42:24;7.38;;;3.58;;
31730;SDS011;18310;55.586;12.286;2022-12-16T03:45:29;11.15;;;4.30;;
31730;SDS011;18310;55.586;12.286;2022-12-16T03:48:43;11.05;;;3.90;;
31730;SDS011;18310;55.586;12.286;2022-12-16T03:51:50;9.02;;;4.32;;
31730;SDS011;18310;55.586;12.286;2022-12-16T03:54:55;8.50;;;4.05;;
31730;SDS011;18310;55.586;12.286;2022-12-16T03:57:58;6.45;;;3.45;;
31730;SDS011;18310;55.586;12.286;2022-12-16T04:01:02;8.25;;;3.95;;
31730;SDS011;18310;55.586;12.286;2022-12-16T04:07:09;6.95;;;3.45;;
31730;SDS011;18310;55.586;12.286;2022-12-16T04:10:22;6.90;;;3.42;;
31730;SDS011;18310;55.586;12.286;2022-12-16T04:13:38;7.28;;;3.80;;
31730;SDS011;18310;55.586;12.286;2022-12-16T04:17:07;9.05;;;4.22;;
31730;SDS011;18310;55.586;12.286;2022-12-16T04:20:33;10.45;;;4.43;;
31730;SDS011;18310;55.586;12.286;2022-12-16T04:23:59;10.07;;;4.47;;
31730;SDS011;18310;55.586;12.286;2022-12-16T04:27:20;7.70;;;3.85;;
31730;SDS011;18310;55.586;12.286;2022-12-16T04:30:28;8.73;;;4.63;;
31730;SDS011;18310;55.586;12.286;2022-12-16T04:33:35;8.02;;;4.35;;
31730;SDS011;18310;55.586;12.286;2022-12-16T04:36:56;8.85;;;3.75;;
31730;SDS011;18310;55.586;12.286;2022-12-16T04:40:20;9.40;;;3.88;;
31730;SDS011;18310;55.586;12.286;2022-12-16T04:43:56;8.05;;;3.75;;
31730;SDS011;18310;55.586;12.286;2022-12-16T04:47:16;10.07;;;3.92;;
31730;SDS011;18310;55.586;12.286;2022-12-16T04:50:37;8.23;;;3.72;;
31730;SDS011;18310;55.586;12.286;2022-12-16T04:53:58;12.02;;;3.40;;
31730;SDS011;18310;55.586;12.286;2022-12-16T04:57:20;8.15;;;4.18;;
31730;SDS011;18310;55.586;12.286;2022-12-16T05:00:41;6.90;;;3.05;;
31730;SDS011;18310;55.586;12.286;2022-12-16T05:04:04;6.70;;;3.58;;
31730;SDS011;18310;55.586;12.286;2022-12-16T05:07:24;7.75;;;2.97;;
31730;SDS011;18310;55.586;12.286;2022-12-16T05:10:45;7.10;;;3.60;;
31730;SDS011;18310;55.586;12.286;2022-12-16T05:14:07;7.13;;;3.45;;
31730;SDS011;18310;55.586;12.286;2022-12-16T05:17:28;7.13;;;3.38;;
31730;SDS011;18310;55.586;12.286;2022-12-16T05:20:48;8.32;;;3.35;;
31730;SDS011;18310;55.586;12.286;2022-12-16T05:24:10;5.85;;;3.17;;
31730;SDS011;18310;55.586;12.286;2022-12-16T05:27:30;8.90;;;3.35;;
31730;SDS011;18310;55.586;12.286;2022-12-16T05:30:53;5.38;;;2.88;;
31730;SDS011;18310;55.586;12.286;2022-12-16T05:34:14;7.25;;;3.22;;
31730;SDS011;18310;55.586;12.286;2022-12-16T05:37:34;6.18;;;3.25;;
31730;SDS011;18310;55.586;12.286;2022-12-16T05:40:55;6.93;;;3.53;;
31730;SDS011;18310;55.586;12.286;2022-12-16T05:44:16;7.57;;;3.78;;
31730;SDS011;18310;55.586;12.286;2022-12-16T05:47:39;7.13;;;3.47;;
31730;SDS011;18310;55.586;12.286;2022-12-16T05:51:00;7.95;;;3.85;;
31730;SDS011;18310;55.586;12.286;2022-12-16T05:54:21;9.52;;;4.15;;
31730;SDS011;18310;55.586;12.286;2022-12-16T05:57:42;8.75;;;3.83;;
31730;SDS011;18310;55.586;12.286;2022-12-16T06:01:03;8.02;;;3.78;;
31730;SDS011;18310;55.586;12.286;2022-12-16T06:04:24;7.45;;;3.63;;
31730;SDS011;18310;55.586;12.286;2022-12-16T06:07:49;6.88;;;2.95;;
31730;SDS011;18310;55.586;12.286;2022-12-16T06:11:10;6.10;;;3.25;;
31730;SDS011;18310;55.586;12.286;2022-12-16T06:14:31;7.97;;;3.95;;
31730;SDS011;18310;55.586;12.286;2022-12-16T06:17:51;8.63;;;4.20;;
31730;SDS011;18310;55.586;12.286;2022-12-16T06:21:14;8.82;;;3.63;;
31730;SDS011;18310;55.586;12.286;2022-12-16T06:24:34;10.55;;;5.32;;
31730;SDS011;18310;55.586;12.286;2022-12-16T06:27:55;10.32;;;4.82;;
31730;SDS011;18310;55.586;12.286;2022-12-16T06:31:16;10.98;;;4.38;;
31730;SDS011;18310;55.586;12.286;2022-12-16T06:34:37;8.18;;;4.25;;
31730;SDS011;18310;55.586;12.286;2022-12-16T06:37:59;5.70;;;3.30;;
31730;SDS011;18310;55.586;12.286;2022-12-16T06:41:20;5.82;;;2.65;;
31730;SDS011;18310;55.586;12.286;2022-12-16T06:44:41;7.95;;;3.55;;
31730;SDS011;18310;55.586;12.286;2022-12-16T06:48:03;9.27;;;3.75;;
31730;SDS011;18310;55.586;12.286;2022-12-16T06:51:24;7.32;;;3.60;;
31730;SDS011;18310;55.586;12.286;2022-12-16T06:54:47;12.45;;;4.35;;
31730;SDS011;18310;55.586;12.286;2022-12-16T06:58:07;11.43;;;4.53;;
31730;SDS011;18310;55.586;12.286;2022-12-16T07:01:37;8.95;;;4.60;;
31730;SDS011;18310;55.586;12.286;2022-12-16T07:04:58;10.52;;;4.47;;
31730;SDS011;18310;55.586;12.286;2022-12-16T07:08:19;10.38;;;5.13;;
31730;SDS011;18310;55.586;12.286;2022-12-16T07:11:50;10.38;;;4.93;;
31730;SDS011;18310;55.586;12.286;2022-12-16T07:15:11;13.70;;;5.20;;
31730;SDS011;18310;55.586;12.286;2022-12-16T07:18:28;12.20;;;5.63;;
31730;SDS011;18310;55.586;12.286;2022-12-16T07:21:48;11.40;;;5.80;;
31730;SDS011;18310;55.586;12.286;2022-12-16T07:25:09;12.38;;;4.57;;
31730;SDS011;18310;55.586;12.286;2022-12-16T07:28:31;9.52;;;4.40;;
31730;SDS011;18310;55.586;12.286;2022-12-16T07:31:52;8.88;;;3.58;;
31730;SDS011;18310;55.586;12.286;2022-12-16T07:35:13;11.82;;;4.38;;
31730;SDS011;18310;55.586;12.286;2022-12-16T07:38:34;10.75;;;4.35;;
31730;SDS011;18310;55.586;12.286;2022-12-16T07:41:55;10.27;;;4.68;;
31730;SDS011;18310;55.586;12.286;2022-12-16T07:45:17;9.57;;;3.38;;
31730;SDS011;18310;55.586;12.286;2022-12-16T07:48:45;8.02;;;2.92;;
31730;SDS011;18310;55.586;12.286;2022-12-16T07:52:05;8.60;;;3.67;;
31730;SDS011;18310;55.586;12.286;2022-12-16T07:55:26;11.30;;;3.50;;
31730;SDS011;18310;55.586;12.286;2022-12-16T07:58:47;6.53;;;3.20;;
31730;SDS011;18310;55.586;12.286;2022-12-16T08:02:09;8.95;;;3.95;;
31730;SDS011;18310;55.586;12.286;2022-12-16T08:05:30;7.68;;;2.67;;
31730;SDS011;18310;55.586;12.286;2022-12-16T08:08:51;6.55;;;2.90;;
31730;SDS011;18310;55.586;12.286;2022-12-16T08:12:12;7.78;;;3.22;;
31730;SDS011;18310;55.586;12.286;2022-12-16T08:15:32;6.38;;;2.80;;
31730;SDS011;18310;55.586;12.286;2022-12-16T08:18:54;6.13;;;3.00;;
31730;SDS011;18310;55.586;12.286;2022-12-16T08:22:15;5.55;;;2.55;;
31730;SDS011;18310;55.586;12.286;2022-12-16T08:25:36;8.68;;;3.38;;
31730;SDS011;18310;55.586;12.286;2022-12-16T08:28:57;5.47;;;2.70;;
31730;SDS011;18310;55.586;12.286;2022-12-16T08:32:38;5.07;;;2.35;;
31730;SDS011;18310;55.586;12.286;2022-12-16T08:36:08;6.18;;;2.50;;
31730;SDS011;18310;55.586;12.286;2022-12-16T08:39:29;5.93;;;2.47;;
31730;SDS011;18310;55.586;12.286;2022-12-16T08:43:10;5.00;;;2.70;;
31730;SDS011;18310;55.586;12.286;2022-12-16T08:46:31;6.45;;;2.92;;
31730;SDS011;18310;55.586;12.286;2022-12-16T08:49:52;6.15;;;3.42;;
31730;SDS011;18310;55.586;12.286;2022-12-16T08:53:14;7.20;;;3.40;;
31730;SDS011;18310;55.586;12.286;2022-12-16T08:56:36;10.07;;;4.25;;
31730;SDS011;18310;55.586;12.286;2022-12-16T08:59:56;8.40;;;3.63;;
31730;SDS011;18310;55.586;12.286;2022-12-16T09:03:18;7.28;;;4.00;;
31730;SDS011;18310;55.586;12.286;2022-12-16T09:06:39;9.18;;;4.32;;
31730;SDS011;18310;55.586;12.286;2022-12-16T09:10:01;10.85;;;3.45;;
31730;SDS011;18310;55.586;12.286;2022-12-16T09:13:23;9.40;;;3.95;;
31730;SDS011;18310;55.586;12.286;2022-12-16T09:16:43;11.73;;;5.38;;
31730;SDS011;18310;55.586;12.286;2022-12-16T09:20:05;9.02;;;4.40;;
31730;SDS011;18310;55.586;12.286;2022-12-16T09:23:27;8.55;;;4.57;;
31730;SDS011;18310;55.586;12.286;2022-12-16T09:26:49;10.75;;;4.82;;
31730;SDS011;18310;55.586;12.286;2022-12-16T09:30:10;8.65;;;4.80;;
31730;SDS011;18310;55.586;12.286;2022-12-16T09:33:31;6.90;;;4.15;;
31730;SDS011;18310;55.586;12.286;2022-12-16T09:36:51;8.10;;;4.30;;
31730;SDS011;18310;55.586;12.286;2022-12-16T09:40:13;12.55;;;4.50;;
31730;SDS011;18310;55.586;12.286;2022-12-16T09:43:47;14.60;;;5.40;;
31730;SDS011;18310;55.586;12.286;2022-12-16T09:47:21;12.27;;;5.05;;
31730;SDS011;18310;55.586;12.286;2022-12-16T09:50:57;11.13;;;4.55;;
31730;SDS011;18310;55.586;12.286;2022-12-16T09:54:25;13.43;;;3.92;;
31730;SDS011;18310;55.586;12.286;2022-12-16T09:57:51;7.00;;;3.60;;
31730;SDS011;18310;55.586;12.286;2022-12-16T10:01:14;11.60;;;3.92;;
31730;SDS011;18310;55.586;12.286;2022-12-16T10:04:36;7.70;;;3.58;;
31730;SDS011;18310;55.586;12.286;2022-12-16T10:07:58;9.75;;;3.80;;
31730;SDS011;18310;55.586;12.286;2022-12-16T10:11:31;7.30;;;3.53;;
31730;SDS011;18310;55.586;12.286;2022-12-16T10:15:07;9.07;;;3.58;;
31730;SDS011;18310;55.586;12.286;2022-12-16T10:18:49;8.20;;;4.10;;
31730;SDS011;18310;55.586;12.286;2022-12-16T10:22:19;5.03;;;3.22;;
31730;SDS011;18310;55.586;12.286;2022-12-16T10:25:57;6.10;;;3.50;;
31730;SDS011;18310;55.586;12.286;2022-12-16T10:29:26;8.35;;;3.75;;
31730;SDS011;18310;55.586;12.286;2022-12-16T10:32:51;6.93;;;3.88;;
31730;SDS011;18310;55.586;12.286;2022-12-16T10:36:14;9.73;;;3.92;;
31730;SDS011;18310;55.586;12.286;2022-12-16T10:39:40;7.75;;;3.88;;
31730;SDS011;18310;55.586;12.286;2022-12-16T10:43:10;9.55;;;3.47;;
31730;SDS011;18310;55.586;12.286;2022-12-16T10:46:36;7.07;;;3.65;;
31730;SDS011;18310;55.586;12.286;2022-12-16T10:49:57;9.32;;;3.53;;
31730;SDS011;18310;55.586;12.286;2022-12-16T10:53:22;8.55;;;3.55;;
31730;SDS011;18310;55.586;12.286;2022-12-16T10:56:48;8.20;;;3.83;;
31730;SDS011;18310;55.586;12.286;2022-12-16T11:00:17;10.18;;;3.55;;
31730;SDS011;18310;55.586;12.286;2022-12-16T11:03:41;9.30;;;3.67;;
31730;SDS011;18310;55.586;12.286;2022-12-16T11:07:02;6.18;;;3.45;;
31730;SDS011;18310;55.586;12.286;2022-12-16T11:10:27;6.00;;;2.95;;
31730;SDS011;18310;55.586;12.286;2022-12-16T11:13:53;7.63;;;3.20;;
31730;SDS011;18310;55.586;12.286;2022-12-16T11:17:35;8.20;;;3.40;;
31730;SDS011;18310;55.586;12.286;2022-12-16T11:21:08;8.05;;;3.85;;
31730;SDS011;18310;55.586;12.286;2022-12-16T11:24:33;8.27;;;3.67;;
31730;SDS011;18310;55.586;12.286;2022-12-16T11:28:02;9.43;;;3.80;;
31730;SDS011;18310;55.586;12.286;2022-12-16T11:31:23;5.38;;;3.13;;
31730;SDS011;18310;55.586;12.286;2022-12-16T11:34:51;8.95;;;2.83;;
31730;SDS011;18310;55.586;12.286;2022-12-16T11:38:18;5.43;;;3.10;;
31730;SDS011;18310;55.586;12.286;2022-12-16T11:41:45;6.25;;;2.88;;
31730;SDS011;18310;55.586;12.286;2022-12-16T11:45:13;8.27;;;3.42;;
31730;SDS011;18310;55.586;12.286;2022-12-16T11:48:39;9.20;;;3.10;;
31730;SDS011;18310;55.586;12.286;2022-12-16T11:52:04;5.35;;;3.05;;
31730;SDS011;18310;55.586;12.286;2022-12-16T11:55:37;7.50;;;3.50;;
31730;SDS011;18310;55.586;12.286;2022-12-16T11:59:15;6.45;;;3.13;;
31730;SDS011;18310;55.586;12.286;2022-12-16T12:02:46;6.28;;;3.33;;
31730;SDS011;18310;55.586;12.286;2022-12-16T12:06:16;7.55;;;3.28;;
31730;SDS011;18310;55.586;12.286;2022-12-16T12:09:46;6.72;;;3.28;;
31730;SDS011;18310;55.586;12.286;2022-12-16T12:13:33;7.13;;;3.05;;
31730;SDS011;18310;55.586;12.286;2022-12-16T12:17:17;8.47;;;3.50;;
31730;SDS011;18310;55.586;12.286;2022-12-16T12:20:57;6.32;;;3.42;;
31730;SDS011;18310;55.586;12.286;2022-12-16T12:27:59;7.10;;;3.08;;
31730;SDS011;18310;55.586;12.286;2022-12-16T12:31:38;6.88;;;3.15;;
31730;SDS011;18310;55.586;12.286;2022-12-16T12:35:12;5.45;;;3.33;;
31730;SDS011;18310;55.586;12.286;2022-12-16T12:38:55;9.05;;;3.60;;
31730;SDS011;18310;55.586;12.286;2022-12-16T12:42:43;8.15;;;3.38;;
31730;SDS011;18310;55.586;12.286;2022-12-16T12:46:09;10.63;;;3.30;;
31730;SDS011;18310;55.586;12.286;2022-12-16T12:49:42;5.13;;;2.80;;
31730;SDS011;18310;55.586;12.286;2022-12-16T12:53:18;7.50;;;3.58;;
31730;SDS011;18310;55.586;12.286;2022-12-16T12:56:56;6.18;;;3.03;;
31730;SDS011;18310;55.586;12.286;2022-12-16T13:00:20;9.05;;;3.85;;
31730;SDS011;18310;55.586;12.286;2022-12-16T13:03:45;9.80;;;3.20;;
31730;SDS011;18310;55.586;12.286;2022-12-16T13:07:13;5.93;;;3.08;;
31730;SDS011;18310;55.586;12.286;2022-12-16T13:10:35;11.93;;;4.38;;
31730;SDS011;18310;55.586;12.286;2022-12-16T13:13:58;8.55;;;3.60;;
31730;SDS011;18310;55.586;12.286;2022-12-16T13:17:20;9.18;;;3.70;;
31730;SDS011;18310;55.586;12.286;2022-12-16T13:20:42;9.73;;;3.60;;
31730;SDS011;18310;55.586;12.286;2022-12-16T13:24:13;9.27;;;3.20;;
31730;SDS011;18310;55.586;12.286;2022-12-16T13:27:49;8.13;;;3.35;;
31730;SDS011;18310;55.586;12.286;2022-12-16T13:31:16;6.72;;;2.97;;
31730;SDS011;18310;55.586;12.286;2022-12-16T13:34:38;7.93;;;3.40;;
31730;SDS011;18310;55.586;12.286;2022-12-16T13:38:00;8.27;;;3.20;;
31730;SDS011;18310;55.586;12.286;2022-12-16T13:45:16;12.57;;;4.05;;
31730;SDS011;18310;55.586;12.286;2022-12-16T13:48:52;8.02;;;3.92;;
31730;SDS011;18310;55.586;12.286;2022-12-16T13:52:14;10.18;;;3.92;;
31730;SDS011;18310;55.586;12.286;2022-12-16T13:55:38;9.45;;;3.92;;
31730;SDS011;18310;55.586;12.286;2022-12-16T13:59:16;12.48;;;3.85;;
31730;SDS011;18310;55.586;12.286;2022-12-16T14:02:41;13.38;;;4.30;;
31730;SDS011;18310;55.586;12.286;2022-12-16T14:06:08;15.38;;;5.15;;
31730;SDS011;18310;55.586;12.286;2022-12-16T14:09:38;12.13;;;3.40;;
31730;SDS011;18310;55.586;12.286;2022-12-16T14:13:02;8.50;;;3.70;;
31730;SDS011;18310;55.586;12.286;2022-12-16T14:16:32;7.55;;;3.67;;
31730;SDS011;18310;55.586;12.286;2022-12-16T14:20:10;8.95;;;4.13;;
31730;SDS011;18310;55.586;12.286;2022-12-16T14:23:42;6.72;;;3.55;;
31730;SDS011;18310;55.586;12.286;2022-12-16T14:27:11;12.35;;;4.78;;
31730;SDS011;18310;55.586;12.286;2022-12-16T14:30:35;7.55;;;4.40;;
31730;SDS011;18310;55.586;12.286;2022-12-16T14:33:58;9.07;;;4.28;;
31730;SDS011;18310;55.586;12.286;2022-12-16T14:37:22;9.07;;;3.92;;
31730;SDS011;18310;55.586;12.286;2022-12-16T14:40:54;13.10;;;5.05;;
31730;SDS011;18310;55.586;12.286;2022-12-16T14:44:15;9.65;;;4.38;;
31730;SDS011;18310;55.586;12.286;2022-12-16T14:47:40;10.27;;;4.70;;
31730;SDS011;18310;55.586;12.286;2022-12-16T14:51:13;9.20;;;4.97;;
31730;SDS011;18310;55.586;12.286;2022-12-16T14:54:45;9.15;;;4.43;;
31730;SDS011;18310;55.586;12.286;2022-12-16T14:58:09;10.60;;;3.53;;
31730;SDS011;18310;55.586;12.286;2022-12-16T15:01:32;6.65;;;3.83;;
31730;SDS011;18310;55.586;12.286;2022-12-16T15:04:54;9.18;;;3.22;;
31730;SDS011;18310;55.586;12.286;2022-12-16T15:08:23;8.50;;;3.80;;
31730;SDS011;18310;55.586;12.286;2022-12-16T15:11:46;5.68;;;3.50;;
31730;SDS011;18310;55.586;12.286;2022-12-16T15:15:14;11.02;;;4.78;;
31730;SDS011;18310;55.586;12.286;2022-12-16T15:18:42;10.18;;;3.78;;
31730;SDS011;18310;55.586;12.286;2022-12-16T15:22:10;9.07;;;4.38;;
31730;SDS011;18310;55.586;12.286;2022-12-16T15:25:33;10.05;;;4.90;;
31730;SDS011;18310;55.586;12.286;2022-12-16T15:29:00;13.25;;;6.20;;
31730;SDS011;18310;55.586;12.286;2022-12-16T15:32:31;25.77;;;10.68;;
31730;SDS011;18310;55.586;12.286;2022-12-16T15:35:59;18.83;;;9.15;;
31730;SDS011;18310;55.586;12.286;2022-12-16T15:39:21;23.63;;;11.27;;
31730;SDS011;18310;55.586;12.286;2022-12-16T15:42:49;29.08;;;11.68;;
31730;SDS011;18310;55.586;12.286;2022-12-16T15:46:17;28.50;;;12.27;;
31730;SDS011;18310;55.586;12.286;2022-12-16T15:49:43;30.08;;;13.13;;
31730;SDS011;18310;55.586;12.286;2022-12-16T15:53:14;29.83;;;13.38;;
31730;SDS011;18310;55.586;12.286;2022-12-16T15:56:47;34.22;;;15.68;;
31730;SDS011;18310;55.586;12.286;2022-12-16T16:00:16;24.20;;;11.45;;
31730;SDS011;18310;55.586;12.286;2022-12-16T16:03:46;18.77;;;9.15;;
31730;SDS011;18310;55.586;12.286;2022-12-16T16:10:35;24.52;;;11.88;;
31730;SDS011;18310;55.586;12.286;2022-12-16T16:13:56;21.17;;;10.27;;
31730;SDS011;18310;55.586;12.286;2022-12-16T16:17:19;21.50;;;11.07;;
31730;SDS011;18310;55.586;12.286;2022-12-16T16:20:42;19.63;;;10.50;;
31730;SDS011;18310;55.586;12.286;2022-12-16T16:24:05;20.17;;;10.50;;
31730;SDS011;18310;55.586;12.286;2022-12-16T16:27:26;23.33;;;10.63;;
31730;SDS011;18310;55.586;12.286;2022-12-16T16:30:48;22.73;;;9.68;;
31730;SDS011;18310;55.586;12.286;2022-12-16T16:34:08;22.38;;;9.73;;
31730;SDS011;18310;55.586;12.286;2022-12-16T16:37:33;18.65;;;8.65;;
31730;SDS011;18310;55.586;12.286;2022-12-16T16:40:56;15.82;;;8.80;;
31730;SDS011;18310;55.586;12.286;2022-12-16T16:44:16;19.08;;;8.43;;
31730;SDS011;18310;55.586;12.286;2022-12-16T16:47:37;18.33;;;8.05;;
31730;SDS011;18310;55.586;12.286;2022-12-16T16:50:58;17.67;;;8.77;;
31730;SDS011;18310;55.586;12.286;2022-12-16T16:54:38;16.95;;;8.43;;
31730;SDS011;18310;55.586;12.286;2022-12-16T16:58:00;18.00;;;7.93;;
31730;SDS011;18310;55.586;12.286;2022-12-16T17:01:30;20.90;;;8.40;;
31730;SDS011;18310;55.586;12.286;2022-12-16T17:04:51;19.02;;;8.38;;
31730;SDS011;18310;55.586;12.286;2022-12-16T17:08:12;27.13;;;11.40;;
31730;SDS011;18310;55.586;12.286;2022-12-16T17:11:33;29.63;;;14.23;;
31730;SDS011;18310;55.586;12.286;2022-12-16T17:14:56;29.80;;;12.85;;
31730;SDS011;18310;55.586;12.286;2022-12-16T17:18:17;24.73;;;11.45;;
31730;SDS011;18310;55.586;12.286;2022-12-16T17:21:46;33.08;;;13.80;;
31730;SDS011;18310;55.586;12.286;2022-12-16T17:25:07;31.38;;;14.93;;
31730;SDS011;18310;55.586;12.286;2022-12-16T17:28:28;26.83;;;12.38;;
31730;SDS011;18310;55.586;12.286;2022-12-16T17:31:50;22.63;;;9.93;;
31730;SDS011;18310;55.586;12.286;2022-12-16T17:35:11;18.83;;;10.05;;
31730;SDS011;18310;55.586;12.286;2022-12-16T17:38:32;21.67;;;9.50;;
31730;SDS011;18310;55.586;12.286;2022-12-16T17:41:58;22.70;;;10.00;;
31730;SDS011;18310;55.586;12.286;2022-12-16T17:45:18;21.85;;;10.88;;
31730;SDS011;18310;55.586;12.286;2022-12-16T17:48:40;26.30;;;11.57;;
31730;SDS011;18310;55.586;12.286;2022-12-16T17:52:02;28.63;;;12.15;;
31730;SDS011;18310;55.586;12.286;2022-12-16T17:55:23;31.88;;;12.18;;
31730;SDS011;18310;55.586;12.286;2022-12-16T17:58:44;29.23;;;12.10;;
31730;SDS011;18310;55.586;12.286;2022-12-16T18:02:07;26.25;;;12.13;;
31730;SDS011;18310;55.586;12.286;2022-12-16T18:05:33;24.42;;;10.02;;
31730;SDS011;18310;55.586;12.286;2022-12-16T18:08:54;24.55;;;10.52;;
31730;SDS011;18310;55.586;12.286;2022-12-16T18:12:14;29.58;;;11.27;;
31730;SDS011;18310;55.586;12.286;2022-12-16T18:15:35;22.77;;;11.75;;
31730;SDS011;18310;55.586;12.286;2022-12-16T18:18:56;20.15;;;9.30;;
31730;SDS011;18310;55.586;12.286;2022-12-16T18:22:18;21.25;;;8.73;;
31730;SDS011;18310;55.586;12.286;2022-12-16T18:25:39;16.95;;;8.40;;
31730;SDS011;18310;55.586;12.286;2022-12-16T18:29:00;18.60;;;8.90;;
31730;SDS011;18310;55.586;12.286;2022-12-16T18:32:21;22.60;;;9.57;;
31730;SDS011;18310;55.586;12.286;2022-12-16T18:35:42;26.08;;;11.98;;
31730;SDS011;18310;55.586;12.286;2022-12-16T18:39:04;25.40;;;13.30;;
31730;SDS011;18310;55.586;12.286;2022-12-16T18:42:25;25.30;;;13.05;;
31730;SDS011;18310;55.586;12.286;2022-12-16T18:45:50;27.13;;;12.18;;
31730;SDS011;18310;55.586;12.286;2022-12-16T18:49:11;26.55;;;12.40;;
31730;SDS011;18310;55.586;12.286;2022-12-16T18:52:31;28.15;;;11.70;;
31730;SDS011;18310;55.586;12.286;2022-12-16T18:56:00;29.77;;;11.88;;
31730;SDS011;18310;55.586;12.286;2022-12-16T18:59:24;24.92;;;10.35;;
31730;SDS011;18310;55.586;12.286;2022-12-16T19:02:45;22.38;;;10.15;;
31730;SDS011;18310;55.586;12.286;2022-12-16T19:06:06;33.92;;;11.45;;
31730;SDS011;18310;55.586;12.286;2022-12-16T19:09:38;29.58;;;11.82;;
31730;SDS011;18310;55.586;12.286;2022-12-16T19:13:01;33.80;;;13.13;;
31730;SDS011;18310;55.586;12.286;2022-12-16T19:16:22;41.50;;;16.05;;
31730;SDS011;18310;55.586;12.286;2022-12-16T19:19:43;39.80;;;16.42;;
31730;SDS011;18310;55.586;12.286;2022-12-16T19:23:04;66.15;;;23.17;;
31730;SDS011;18310;55.586;12.286;2022-12-16T19:26:25;49.13;;;19.05;;
31730;SDS011;18310;55.586;12.286;2022-12-16T19:29:47;43.33;;;16.38;;
31730;SDS011;18310;55.586;12.286;2022-12-16T19:33:13;31.23;;;12.65;;
31730;SDS011;18310;55.586;12.286;2022-12-16T19:36:34;29.80;;;12.65;;
31730;SDS011;18310;55.586;12.286;2022-12-16T19:39:57;27.83;;;11.90;;
31730;SDS011;18310;55.586;12.286;2022-12-16T19:43:18;30.67;;;11.70;;
31730;SDS011;18310;55.586;12.286;2022-12-16T19:46:40;31.75;;;12.25;;
31730;SDS011;18310;55.586;12.286;2022-12-16T19:50:04;36.30;;;13.32;;
31730;SDS011;18310;55.586;12.286;2022-12-16T19:53:26;34.47;;;14.18;;
31730;SDS011;18310;55.586;12.286;2022-12-16T19:56:47;36.35;;;14.15;;
31730;SDS011;18310;55.586;12.286;2022-12-16T20:00:08;33.10;;;15.98;;